Time,TemperatureF,DewpointF,PressureIn,WindDirection,WindDirectionDegrees,WindSpeedMPH,WindSpeedGustMPH,Humidity,HourlyPrecipIn,Conditions,Clouds,dailyrainin,SoftwareType,DateUTC
2013-07-28 00:02:00,56.0,49.0,29.80,WSW,257,0.0,4.0,78,0.00,,,0.21,,2013-07-28 04:02:00,
2013-07-28 00:12:00,56.0,49.0,29.80,WSW,257,0.0,4.0,78,0.00,,,0.21,,2013-07-28 04:12:00,
2013-07-28 00:22:00,56.0,50.0,29.80,WSW,257,0.0,3.0,79,0.00,,,0.17,,2013-07-28 04:22:00,
2013-07-28 00:32:00,56.0,49.0,29.80,WSW,257,0.0,3.0,78,0.00,,,0.17,,2013-07-28 04:32:00,
2013-07-28 00:43:00,56.0,50.0,29.80,WSW,257,0.0,3.0,79,0.00,,,0.17,,2013-07-28 04:43:00,
2013-07-28 00:53:00,56.0,50.0,29.80,WSW,257,0.0,3.0,79,0.00,,,0.14,,2013-07-28 04:53:00,
2013-07-28 01:02:00,56.0,50.0,29.80,WSW,257,1.0,2.0,80,0.00,,,0.14,,2013-07-28 05:02:00,
2013-07-28 01:12:00,56.0,50.0,29.80,WSW,257,0.0,4.0,80,0.00,,,0.14,,2013-07-28 05:12:00,
2013-07-28 01:22:00,56.0,50.0,29.80,WSW,257,1.0,3.0,81,0.00,,,0.10,,2013-07-28 05:22:00,
2013-07-28 01:32:00,56.0,50.0,29.80,WSW,257,1.0,3.0,81,0.00,,,0.10,,2013-07-28 05:32:00,
2013-07-28 01:43:00,55.0,51.0,29.80,WSW,256,2.0,4.0,87,0.00,,,0.10,,2013-07-28 05:43:00,
2013-07-28 01:52:00,54.0,51.0,29.79,WSW,256,0.0,3.0,91,0.01,,,0.08,,2013-07-28 05:52:00,
2013-07-28 02:02:00,54.0,51.0,29.78,WSW,256,0.0,3.0,91,0.01,,,0.08,,2013-07-28 06:02:00,
2013-07-28 02:12:00,54.0,51.0,29.78,WSW,256,0.0,3.0,91,0.01,,,0.08,,2013-07-28 06:12:00,
2013-07-28 02:22:00,54.0,52.0,29.78,WSW,255,1.0,2.0,93,0.02,,,0.06,,2013-07-28 06:22:00,
2013-07-28 02:32:00,54.0,52.0,29.78,WSW,255,1.0,3.0,94,0.03,,,0.07,,2013-07-28 06:32:00,
2013-07-28 02:43:00,54.0,52.0,29.78,WSW,255,0.0,3.0,94,0.03,,,0.07,,2013-07-28 06:43:00,
2013-07-28 02:53:00,54.0,52.0,29.78,WSW,255,0.0,3.0,94,0.03,,,0.07,,2013-07-28 06:53:00,
2013-07-28 03:02:00,53.0,51.0,29.77,SSE,151,6.0,8.0,94,0.03,,,0.05,,2013-07-28 07:02:00,
2013-07-28 03:12:00,54.0,52.0,29.77,South,176,1.0,8.0,94,0.03,,,0.05,,2013-07-28 07:12:00,
2013-07-28 03:23:00,54.0,52.0,29.77,South,176,1.0,8.0,94,0.03,,,0.05,,2013-07-28 07:23:00,
2013-07-28 03:32:00,54.0,53.0,29.77,South,176,0.0,3.0,95,0.01,,,0.03,,2013-07-28 07:32:00,
2013-07-28 03:43:00,54.0,53.0,29.77,South,176,0.0,3.0,95,0.01,,,0.03,,2013-07-28 07:43:00,
2013-07-28 03:53:00,54.0,53.0,29.77,WNW,289,1.0,3.0,95,0.01,,,0.03,,2013-07-28 07:53:00,
2013-07-28 04:02:00,55.0,54.0,29.77,North,350,3.0,5.0,96,0.00,,,0.03,,2013-07-28 08:02:00,
2013-07-28 04:12:00,55.0,54.0,29.77,North,354,3.0,5.0,96,0.00,,,0.03,,2013-07-28 08:12:00,
2013-07-28 04:22:00,55.0,54.0,29.77,North,354,3.0,5.0,96,0.00,,,0.03,,2013-07-28 08:22:00,
2013-07-28 04:33:00,55.0,54.0,29.76,North,354,3.0,4.0,96,0.00,,,0.03,,2013-07-28 08:33:00,
2013-07-28 04:42:00,55.0,54.0,29.76,North,354,3.0,4.0,96,0.00,,,0.03,,2013-07-28 08:42:00,
2013-07-28 04:53:00,55.0,54.0,29.77,North,354,0.0,4.0,95,0.00,,,0.03,,2013-07-28 08:53:00,
2013-07-28 05:02:00,55.0,54.0,29.77,North,354,0.0,4.0,95,0.00,,,0.03,,2013-07-28 09:02:00,
2013-07-28 05:12:00,55.0,54.0,29.76,North,354,0.0,3.0,95,0.00,,,0.03,,2013-07-28 09:12:00,
2013-07-28 05:22:00,55.0,54.0,29.76,North,354,1.0,3.0,95,0.00,,,0.03,,2013-07-28 09:22:00,
2013-07-28 05:32:00,54.0,53.0,29.76,North,354,0.0,3.0,96,0.00,,,0.03,,2013-07-28 09:32:00,
2013-07-28 05:43:00,54.0,53.0,29.76,North,354,0.0,3.0,95,0.01,,,0.04,,2013-07-28 09:43:00,
2013-07-28 05:53:00,54.0,53.0,29.76,North,354,2.0,3.0,96,0.01,,,0.04,,2013-07-28 09:53:00,
2013-07-28 06:02:00,54.0,53.0,29.76,North,354,2.0,3.0,97,0.01,,,0.04,,2013-07-28 10:02:00,
2013-07-28 06:12:00,54.0,53.0,29.76,North,354,1.0,3.0,96,0.01,,,0.04,,2013-07-28 10:12:00,
2013-07-28 06:22:00,54.0,53.0,29.76,North,354,0.0,3.0,96,0.01,,,0.04,,2013-07-28 10:22:00,
2013-07-28 06:33:00,54.0,53.0,29.76,North,354,0.0,3.0,96,0.01,,,0.04,,2013-07-28 10:33:00,
2013-07-28 06:42:00,54.0,53.0,29.77,North,354,0.0,3.0,97,0.02,,,0.05,,2013-07-28 10:42:00,
2013-07-28 06:52:00,54.0,53.0,29.77,North,354,2.0,3.0,97,0.02,,,0.05,,2013-07-28 10:52:00,
2013-07-28 07:12:00,53.0,52.0,29.77,ESE,114,1.0,3.0,97,0.01,,,0.05,,2013-07-28 11:12:00,
2013-07-28 07:22:00,53.0,52.0,29.77,ESE,114,1.0,3.0,97,0.01,,,0.05,,2013-07-28 11:22:00,
2013-07-28 07:33:00,53.0,52.0,29.78,ESE,111,1.0,3.0,97,0.01,,,0.05,,2013-07-28 11:33:00,
2013-07-28 07:43:00,54.0,53.0,29.78,ESE,111,1.0,3.0,97,0.01,,,0.05,,2013-07-28 11:43:00,
2013-07-28 07:54:00,54.0,53.0,29.78,WSW,240,1.0,3.0,97,0.00,,,0.05,,2013-07-28 11:54:00,
2013-07-28 08:02:00,54.0,53.0,29.78,ENE,72,2.0,3.0,97,0.00,,,0.05,,2013-07-28 12:02:00,
2013-07-28 08:12:00,54.0,53.0,29.78,ENE,72,2.0,3.0,97,0.00,,,0.05,,2013-07-28 12:12:00,
2013-07-28 08:22:00,55.0,54.0,29.78,West,262,2.0,3.0,97,0.00,,,0.05,,2013-07-28 12:22:00,
2013-07-28 08:33:00,55.0,54.0,29.78,West,264,0.0,3.0,97,0.00,,,0.05,,2013-07-28 12:33:00,
2013-07-28 08:43:00,56.0,55.0,29.78,East,86,0.0,3.0,96,0.00,,,0.05,,2013-07-28 12:43:00,
2013-07-28 08:53:00,57.0,55.0,29.79,SW,226,0.0,3.0,94,0.00,,,0.05,,2013-07-28 12:53:00,
2013-07-28 09:12:00,56.0,54.0,29.79,WSW,238,2.0,4.0,93,0.00,,,0.05,,2013-07-28 13:12:00,
2013-07-28 09:22:00,57.0,54.0,29.79,West,265,3.0,5.0,89,0.00,,,0.05,,2013-07-28 13:22:00,
2013-07-28 09:32:00,56.0,52.0,29.79,WSW,249,1.0,6.0,87,0.00,,,0.05,,2013-07-28 13:32:00,
2013-07-28 09:43:00,58.0,54.0,29.79,NNW,327,2.0,6.0,87,0.00,,,0.05,,2013-07-28 13:43:00,
2013-07-28 09:53:00,58.0,54.0,29.79,ENE,61,1.0,6.0,85,0.00,,,0.05,,2013-07-28 13:53:00,
2013-07-28 10:02:00,58.0,54.0,29.79,WNW,288,2.0,4.0,87,0.00,,,0.05,,2013-07-28 14:02:00,
2013-07-28 10:12:00,59.0,54.0,29.79,SW,226,5.0,5.0,84,0.00,,,0.05,,2013-07-28 14:12:00,
2013-07-28 10:23:00,59.0,54.0,29.79,WSW,240,3.0,5.0,82,0.00,,,0.05,,2013-07-28 14:23:00,
2013-07-28 10:33:00,59.0,54.0,29.79,WSW,240,3.0,5.0,82,0.00,,,0.05,,2013-07-28 14:33:00,
2013-07-28 10:53:00,59.0,53.0,29.79,WSW,250,5.0,7.0,81,0.00,,,0.05,,2013-07-28 14:53:00,
2013-07-28 11:03:00,60.0,52.0,29.80,SW,233,2.0,8.0,76,0.00,,,0.05,,2013-07-28 15:03:00,
2013-07-28 11:13:00,60.0,52.0,29.80,SW,233,2.0,8.0,76,0.00,,,0.05,,2013-07-28 15:13:00,
2013-07-28 11:22:00,60.0,52.0,29.80,WNW,294,1.0,6.0,76,0.00,,,0.05,,2013-07-28 15:22:00,
2013-07-28 11:32:00,60.0,52.0,29.80,WNW,294,1.0,6.0,76,0.00,,,0.05,,2013-07-28 15:32:00,
2013-07-28 11:43:00,59.0,52.0,29.80,NW,312,5.0,13.0,77,0.00,,,0.05,,2013-07-28 15:43:00,
2013-07-28 11:53:00,59.0,52.0,29.80,NE,34,6.0,13.0,77,0.00,,,0.05,,2013-07-28 15:53:00,
2013-07-28 12:02:00,60.0,52.0,29.80,NNW,346,3.0,9.0,76,0.00,,,0.05,,2013-07-28 16:02:00,
2013-07-28 12:12:00,60.0,52.0,29.81,WNW,288,3.0,9.0,76,0.00,,,0.05,,2013-07-28 16:12:00,
2013-07-28 12:22:00,60.0,52.0,29.81,North,357,1.0,9.0,76,0.00,,,0.05,,2013-07-28 16:22:00,
2013-07-28 12:33:00,60.0,52.0,29.81,West,274,8.0,10.0,76,0.00,,,0.05,,2013-07-28 16:33:00,
2013-07-28 12:43:00,60.0,51.0,29.81,West,274,4.0,10.0,72,0.00,,,0.05,,2013-07-28 16:43:00,
2013-07-28 12:52:00,60.0,51.0,29.81,West,274,4.0,10.0,72,0.00,,,0.05,,2013-07-28 16:52:00,
2013-07-28 13:02:00,61.0,52.0,29.82,WSW,248,3.0,9.0,72,0.00,,,0.05,,2013-07-28 17:02:00,
2013-07-28 13:13:00,61.0,52.0,29.82,West,281,7.0,11.0,72,0.00,,,0.05,,2013-07-28 17:13:00,
2013-07-28 13:23:00,61.0,52.0,29.82,NW,313,2.0,6.0,73,0.00,,,0.05,,2013-07-28 17:23:00,
2013-07-28 13:33:00,61.0,52.0,29.81,West,277,10.0,10.0,73,0.00,,,0.05,,2013-07-28 17:33:00,
2013-07-28 14:03:00,62.0,52.0,29.81,SE,131,2.0,10.0,69,0.00,,,0.05,,2013-07-28 18:03:00,
2013-07-28 14:12:00,62.0,52.0,29.81,SE,131,2.0,10.0,69,0.00,,,0.05,,2013-07-28 18:12:00,
2013-07-28 14:22:00,62.0,52.0,29.81,SE,131,2.0,10.0,69,0.00,,,0.05,,2013-07-28 18:22:00,
2013-07-28 14:33:00,63.0,51.0,29.81,SW,220,2.0,7.0,65,0.00,,,0.05,,2013-07-28 18:33:00,
2013-07-28 14:43:00,63.0,53.0,29.82,SW,227,3.0,12.0,70,0.00,,,0.05,,2013-07-28 18:43:00,
2013-07-28 14:52:00,63.0,52.0,29.81,WNW,290,3.0,8.0,67,0.00,,,0.05,,2013-07-28 18:52:00,
2013-07-28 15:03:00,63.0,52.0,29.81,WNW,288,9.0,12.0,67,0.00,,,0.05,,2013-07-28 19:03:00,
2013-07-28 15:12:00,63.0,52.0,29.82,WNW,285,7.0,12.0,68,0.00,,,0.05,,2013-07-28 19:12:00,
2013-07-28 15:22:00,63.0,51.0,29.82,SW,232,5.0,14.0,66,0.00,,,0.05,,2013-07-28 19:22:00,
2013-07-28 15:33:00,64.0,52.0,29.82,WNW,295,5.0,14.0,64,0.00,,,0.05,,2013-07-28 19:33:00,
2013-07-28 15:52:00,64.0,52.0,29.83,WNW,303,6.0,8.0,65,0.00,,,0.05,,2013-07-28 19:52:00,
2013-07-28 16:02:00,63.0,51.0,29.83,South,185,2.0,15.0,66,0.00,,,0.05,,2013-07-28 20:02:00,
2013-07-28 16:13:00,63.0,51.0,29.83,South,185,2.0,15.0,66,0.00,,,0.05,,2013-07-28 20:13:00,
2013-07-28 16:23:00,62.0,51.0,29.84,West,276,6.0,10.0,67,0.00,,,0.05,,2013-07-28 20:23:00,
2013-07-28 16:33:00,62.0,51.0,29.84,NW,304,4.0,14.0,68,0.00,,,0.05,,2013-07-28 20:33:00,
2013-07-28 16:43:00,61.0,52.0,29.85,West,280,5.0,14.0,71,0.00,,,0.05,,2013-07-28 20:43:00,
2013-07-28 16:53:00,61.0,52.0,29.85,West,278,6.0,10.0,72,0.00,,,0.05,,2013-07-28 20:53:00,
2013-07-28 17:03:00,60.0,51.0,29.85,WSW,258,8.0,10.0,72,0.00,,,0.05,,2013-07-28 21:03:00,
2013-07-28 17:13:00,60.0,51.0,29.85,WSW,258,8.0,10.0,72,0.00,,,0.05,,2013-07-28 21:13:00,
2013-07-28 17:22:00,60.0,52.0,29.86,SW,222,5.0,10.0,75,0.00,,,0.05,,2013-07-28 21:22:00,
2013-07-28 17:33:00,60.0,52.0,29.86,SW,222,5.0,10.0,75,0.00,,,0.05,,2013-07-28 21:33:00,
2013-07-28 17:44:00,59.0,52.0,29.85,ENE,72,0.0,10.0,79,0.00,,,0.05,,2013-07-28 21:44:00,
2013-07-28 17:52:00,59.0,52.0,29.86,SE,136,2.0,6.0,79,0.00,,,0.05,,2013-07-28 21:52:00,
2013-07-28 18:02:00,59.0,52.0,29.86,West,267,9.0,9.0,79,0.00,,,0.05,,2013-07-28 22:02:00,
2013-07-28 18:12:00,59.0,52.0,29.86,West,267,9.0,9.0,79,0.00,,,0.05,,2013-07-28 22:12:00,
2013-07-28 18:22:00,59.0,52.0,29.86,West,267,9.0,9.0,79,0.00,,,0.05,,2013-07-28 22:22:00,
2013-07-28 18:32:00,58.0,54.0,29.86,South,174,2.0,5.0,88,0.00,,,0.05,,2013-07-28 22:32:00,
2013-07-28 18:43:00,58.0,54.0,29.86,WSW,243,6.0,9.0,86,0.00,,,0.05,,2013-07-28 22:43:00,
2013-07-28 18:52:00,58.0,54.0,29.87,WSW,258,2.0,9.0,86,0.00,,,0.05,,2013-07-28 22:52:00,
2013-07-28 19:03:00,58.0,54.0,29.87,WSW,258,2.0,9.0,86,0.00,,,0.05,,2013-07-28 23:03:00,
2013-07-28 19:12:00,58.0,54.0,29.87,West,262,4.0,9.0,86,0.00,,,0.05,,2013-07-28 23:12:00,
2013-07-28 19:22:00,58.0,54.0,29.87,West,262,4.0,9.0,86,0.00,,,0.05,,2013-07-28 23:22:00,
2013-07-28 19:32:00,58.0,54.0,29.87,West,262,4.0,9.0,86,0.00,,,0.05,,2013-07-28 23:32:00,
2013-07-28 19:43:00,58.0,54.0,29.87,West,262,4.0,9.0,86,0.00,,,0.05,,2013-07-28 23:43:00,
2013-07-28 19:53:00,58.0,54.0,29.87,West,262,4.0,9.0,86,0.00,,,0.05,,2013-07-28 23:53:00,
2013-07-28 20:03:00,56.0,54.0,29.87,SSW,196,3.0,6.0,92,0.00,,,0.05,,2013-07-29 00:03:00,
2013-07-28 20:22:00,56.0,54.0,29.87,SSW,196,3.0,6.0,92,0.00,,,0.05,,2013-07-29 00:22:00,
2013-07-28 20:32:00,56.0,54.0,29.87,SW,231,3.0,7.0,92,0.00,,,0.05,,2013-07-29 00:32:00,
2013-07-28 20:52:00,56.0,54.0,29.88,WSW,257,0.0,3.0,93,0.01,,,0.06,,2013-07-29 00:52:00,
2013-07-28 21:02:00,56.0,54.0,29.88,WSW,257,1.0,3.0,93,0.01,,,0.06,,2013-07-29 01:02:00,
2013-07-28 21:14:00,56.0,54.0,29.88,WSW,257,1.0,3.0,93,0.01,,,0.06,,2013-07-29 01:14:00,
2013-07-28 21:28:00,56.0,54.0,29.88,WSW,257,1.0,3.0,93,0.01,,,0.06,,2013-07-29 01:28:00,
2013-07-28 21:36:00,56.0,54.0,29.88,SSW,203,1.0,3.0,94,0.01,,,0.06,,2013-07-29 01:36:00,
2013-07-28 22:01:00,56.0,54.0,29.88,South,180,2.0,2.0,94,0.00,,,0.06,,2013-07-29 02:01:00,
2013-07-28 22:14:00,56.0,55.0,29.89,South,180,0.0,4.0,95,0.00,,,0.06,,2013-07-29 02:14:00,
2013-07-28 22:26:00,56.0,55.0,29.89,South,180,1.0,3.0,95,0.00,,,0.06,,2013-07-29 02:26:00,
2013-07-28 22:37:00,56.0,55.0,29.90,South,180,1.0,3.0,95,0.00,,,0.06,,2013-07-29 02:37:00,
2013-07-28 22:56:00,56.0,55.0,29.90,South,180,1.0,4.0,95,0.00,,,0.06,,2013-07-29 02:56:00,
2013-07-28 23:04:00,56.0,55.0,29.90,South,180,1.0,4.0,95,0.00,,,0.06,,2013-07-29 03:04:00,
2013-07-28 23:17:00,55.0,54.0,29.90,South,180,1.0,4.0,95,0.00,,,0.06,,2013-07-29 03:17:00,
2013-07-28 23:24:00,55.0,54.0,29.90,South,180,2.0,3.0,95,0.00,,,0.06,,2013-07-29 03:24:00,
2013-07-28 23:48:00,55.0,54.0,29.91,South,180,3.0,3.0,96,0.00,,,0.06,,2013-07-29 03:48:00,
2013-07-28 23:56:00,55.0,54.0,29.90,South,180,2.0,4.0,96,0.00,,,0.06,,2013-07-29 03:56:00,